Time,TemperatureF,DewpointF,PressureIn,WindDirection,WindDirectionDegrees,WindSpeedMPH,WindSpeedGustMPH,Humidity,HourlyPrecipIn,Conditions,Clouds,dailyrainin,SoftwareType,DateUTC
2013-04-09 00:00:00,19.3,10.8,30.31,North,9,4.0,22.0,69,0.00,,,0.00,WUHU216DAVISVP2,2013-04-09 05:00:00,
2013-04-09 00:05:00,19.3,10.5,30.31,North,9,6.0,22.0,68,0.00,,,0.00,WUHU216DAVISVP2,2013-04-09 05:05:00,
2013-04-09 00:10:00,19.2,10.4,30.31,NNW,346,5.0,23.0,68,0.00,,,0.00,WUHU216DAVISVP2,2013-04-09 05:10:00,
2013-04-09 00:15:00,19.1,10.0,30.31,North,355,15.0,23.0,67,0.00,,,0.00,WUHU216DAVISVP2,2013-04-09 05:15:00,
2013-04-09 00:20:00,19.0,10.2,30.31,NNE,15,4.0,23.0,68,0.00,,,0.00,WUHU216DAVISVP2,2013-04-09 05:20:00,
2013-04-09 00:25:00,19.1,10.6,30.31,NNE,15,6.0,18.0,69,0.00,,,0.00,WUHU216DAVISVP2,2013-04-09 05:25:00,
2013-04-09 00:30:00,19.0,10.2,30.32,NNE,30,18.0,21.0,68,0.00,,,0.00,WUHU216DAVISVP2,2013-04-09 05:30:00,
2013-04-09 00:35:00,18.9,10.1,30.32,NNE,32,4.0,21.0,68,0.00,,,0.00,WUHU216DAVISVP2,2013-04-09 05:35:00,
2013-04-09 00:40:00,18.8,10.0,30.32,NNE,22,10.0,22.0,68,0.00,,,0.00,WUHU216DAVISVP2,2013-04-09 05:40:00,
2013-04-09 00:45:00,18.8,10.4,30.31,NNE,19,6.0,22.0,69,0.00,,,0.00,WUHU216DAVISVP2,2013-04-09 05:45:00,
2013-04-09 00:50:00,18.7,10.3,30.31,NE,38,17.0,18.0,69,0.00,,,0.00,WUHU216DAVISVP2,2013-04-09 05:50:00,
2013-04-09 00:55:00,18.5,9.7,30.31,North,355,12.0,19.0,68,0.00,,,0.00,WUHU216DAVISVP2,2013-04-09 05:55:00,
2013-04-09 01:00:00,18.5,10.1,30.32,North,360,6.0,19.0,69,0.00,,,0.00,WUHU216DAVISVP2,2013-04-09 06:00:00,
2013-04-09 01:05:00,18.5,10.4,30.32,NNE,13,12.0,17.0,70,0.00,,,0.00,WUHU216DAVISVP2,2013-04-09 06:05:00,
2013-04-09 01:10:00,18.4,10.0,30.32,NNE,23,13.0,20.0,69,0.00,,,0.00,WUHU216DAVISVP2,2013-04-09 06:10:00,
2013-04-09 01:15:00,18.2,9.8,30.32,NE,39,3.0,20.0,69,0.00,,,0.00,WUHU216DAVISVP2,2013-04-09 06:15:00,
2013-04-09 01:20:00,18.2,9.8,30.32,North,360,1.0,16.0,69,0.00,,,0.00,WUHU216DAVISVP2,2013-04-09 06:20:00,
2013-04-09 01:25:00,18.2,9.8,30.32,North,11,0.0,16.0,69,0.00,,,0.00,WUHU216DAVISVP2,2013-04-09 06:25:00,
2013-04-09 01:30:00,18.1,9.7,30.32,North,350,6.0,16.0,69,0.00,,,0.00,WUHU216DAVISVP2,2013-04-09 06:30:00,
2013-04-09 01:35:00,18.1,10.0,30.31,NNW,332,6.0,21.0,70,0.00,,,0.00,WUHU216DAVISVP2,2013-04-09 06:35:00,
2013-04-09 01:40:00,17.9,9.8,30.30,NNE,15,5.0,22.0,70,0.00,,,0.00,WUHU216DAVISVP2,2013-04-09 06:40:00,
2013-04-09 01:45:00,17.8,9.4,30.30,North,5,16.0,22.0,69,0.00,,,0.00,WUHU216DAVISVP2,2013-04-09 06:45:00,
2013-04-09 01:50:00,17.8,9.4,30.31,North,5,9.0,19.0,69,0.00,,,0.00,WUHU216DAVISVP2,2013-04-09 06:50:00,
2013-04-09 01:56:00,17.8,9.4,30.30,North,355,11.0,19.0,69,0.00,,,0.00,WUHU216DAVISVP2,2013-04-09 06:56:00,
2013-04-09 02:01:00,17.6,11.3,30.30,NE,36,10.0,18.0,76,0.00,,,0.00,WUHU216DAVISVP2,2013-04-09 07:01:00,
2013-04-09 02:06:00,17.6,9.5,30.31,North,5,1.0,18.0,70,0.00,,,0.00,WUHU216DAVISVP2,2013-04-09 07:06:00,
2013-04-09 02:11:00,17.6,9.8,30.31,North,360,5.0,18.0,71,0.00,,,0.00,WUHU216DAVISVP2,2013-04-09 07:11:00,
2013-04-09 02:16:00,17.5,9.7,30.31,North,5,4.0,18.0,71,0.00,,,0.00,WUHU216DAVISVP2,2013-04-09 07:16:00,
2013-04-09 02:21:00,17.4,9.6,30.31,NNE,13,18.0,20.0,71,0.00,,,0.00,WUHU216DAVISVP2,2013-04-09 07:21:00,
2013-04-09 02:26:00,17.4,9.0,30.32,North,360,7.0,20.0,69,0.00,,,0.00,WUHU216DAVISVP2,2013-04-09 07:26:00,
2013-04-09 02:31:00,17.4,8.4,30.32,NNE,14,10.0,18.0,67,0.00,,,0.00,WUHU216DAVISVP2,2013-04-09 07:31:00,
2013-04-09 02:36:00,17.3,7.9,30.32,NNE,30,12.0,21.0,66,0.00,,,0.00,WUHU216DAVISVP2,2013-04-09 07:36:00,
2013-04-09 02:41:00,17.2,7.5,30.32,NNE,25,4.0,25.0,65,0.00,,,0.00,WUHU216DAVISVP2,2013-04-09 07:41:00,
2013-04-09 02:47:00,17.2,8.5,30.32,NE,36,2.0,25.0,68,0.00,,,0.00,WUHU216DAVISVP2,2013-04-09 07:47:00,
2013-04-09 02:52:00,17.2,8.8,30.34,North,11,3.0,17.0,69,0.00,,,0.00,WUHU216DAVISVP2,2013-04-09 07:52:00,
2013-04-09 02:57:00,17.0,8.3,30.33,NNE,24,9.0,15.0,68,0.00,,,0.00,WUHU216DAVISVP2,2013-04-09 07:57:00,
2013-04-09 03:02:00,17.0,8.6,30.33,NNE,17,0.0,14.0,69,0.00,,,0.00,WUHU216DAVISVP2,2013-04-09 08:02:00,
2013-04-09 03:07:00,16.9,8.2,30.32,NNE,15,6.0,13.0,68,0.00,,,0.00,WUHU216DAVISVP2,2013-04-09 08:07:00,
2013-04-09 03:12:00,16.9,8.2,30.33,NNW,343,3.0,13.0,68,0.00,,,0.00,WUHU216DAVISVP2,2013-04-09 08:12:00,
2013-04-09 03:17:00,16.9,8.5,30.35,North,360,8.0,13.0,69,0.00,,,0.00,WUHU216DAVISVP2,2013-04-09 08:17:00,
2013-04-09 03:22:00,16.7,8.3,30.35,North,9,1.0,17.0,69,0.00,,,0.00,WUHU216DAVISVP2,2013-04-09 08:22:00,
2013-04-09 03:27:00,16.7,8.3,30.34,North,355,0.0,17.0,69,0.00,,,0.00,WUHU216DAVISVP2,2013-04-09 08:27:00,
2013-04-09 03:32:00,16.6,8.2,30.34,NNE,14,9.0,16.0,69,0.00,,,0.00,WUHU216DAVISVP2,2013-04-09 08:32:00,
2013-04-09 03:37:00,16.5,8.2,30.33,NNE,27,13.0,16.0,69,0.00,,,0.00,WUHU216DAVISVP2,2013-04-09 08:37:00,
2013-04-09 03:42:00,16.6,8.6,30.33,NNE,24,1.0,15.0,70,0.00,,,0.00,WUHU216DAVISVP2,2013-04-09 08:42:00,
2013-04-09 03:47:00,16.6,8.6,30.33,North,349,6.0,16.0,70,0.00,,,0.00,WUHU216DAVISVP2,2013-04-09 08:47:00,
2013-04-09 03:52:00,16.4,8.1,30.32,NNE,22,1.0,16.0,69,0.00,,,0.00,WUHU216DAVISVP2,2013-04-09 08:52:00,
2013-04-09 03:57:00,16.3,8.3,30.32,NNE,19,10.0,16.0,70,0.00,,,0.00,WUHU216DAVISVP2,2013-04-09 08:57:00,
2013-04-09 04:02:00,16.2,8.2,30.33,NNE,18,4.0,17.0,70,0.00,,,0.00,WUHU216DAVISVP2,2013-04-09 09:02:00,
2013-04-09 04:07:00,16.1,8.1,30.33,NNW,334,7.0,17.0,70,0.00,,,0.00,WUHU216DAVISVP2,2013-04-09 09:07:00,
2013-04-09 04:12:00,16.0,8.0,30.34,NE,38,5.0,15.0,70,0.00,,,0.00,WUHU216DAVISVP2,2013-04-09 09:12:00,
2013-04-09 04:17:00,16.0,8.3,30.34,NNE,18,4.0,14.0,71,0.00,,,0.00,WUHU216DAVISVP2,2013-04-09 09:17:00,
2013-04-09 04:22:00,15.9,8.2,30.34,NNE,13,5.0,19.0,71,0.00,,,0.00,WUHU216DAVISVP2,2013-04-09 09:22:00,
2013-04-09 04:27:00,15.8,8.1,30.34,NNE,15,7.0,19.0,71,0.00,,,0.00,WUHU216DAVISVP2,2013-04-09 09:27:00,
2013-04-09 04:32:00,15.8,8.1,30.35,NNE,29,11.0,17.0,71,0.00,,,0.00,WUHU216DAVISVP2,2013-04-09 09:32:00,
2013-04-09 04:37:00,15.7,7.7,30.35,NNW,346,7.0,18.0,70,0.00,,,0.00,WUHU216DAVISVP2,2013-04-09 09:37:00,
2013-04-09 04:42:00,15.7,8.0,30.35,North,9,6.0,18.0,71,0.00,,,0.00,WUHU216DAVISVP2,2013-04-09 09:42:00,
2013-04-09 04:47:00,15.5,7.5,30.34,NNE,13,18.0,18.0,70,0.00,,,0.00,WUHU216DAVISVP2,2013-04-09 09:47:00,
2013-04-09 04:52:00,15.5,7.8,30.34,NNE,21,8.0,19.0,71,0.00,,,0.00,WUHU216DAVISVP2,2013-04-09 09:52:00,
2013-04-09 04:57:00,15.3,7.3,30.34,NNE,18,0.0,16.0,70,0.00,,,0.00,WUHU216DAVISVP2,2013-04-09 09:57:00,
2013-04-09 05:02:00,15.3,7.6,30.34,North,10,7.0,14.0,71,0.00,,,0.00,WUHU216DAVISVP2,2013-04-09 10:02:00,
2013-04-09 05:07:00,15.2,7.5,30.33,North,360,4.0,16.0,71,0.00,,,0.00,WUHU216DAVISVP2,2013-04-09 10:07:00,
2013-04-09 05:12:00,15.2,7.5,30.33,NNE,16,14.0,16.0,71,0.00,,,0.00,WUHU216DAVISVP2,2013-04-09 10:12:00,
2013-04-09 05:17:00,15.2,7.8,30.32,North,355,7.0,16.0,72,0.00,,,0.00,WUHU216DAVISVP2,2013-04-09 10:17:00,
2013-04-09 05:22:00,15.1,7.4,30.32,NNE,17,10.0,15.0,71,0.00,,,0.00,WUHU216DAVISVP2,2013-04-09 10:22:00,
2013-04-09 05:27:00,15.0,7.3,30.32,NNE,15,8.0,16.0,71,0.00,,,0.00,WUHU216DAVISVP2,2013-04-09 10:27:00,
2013-04-09 05:32:00,15.0,6.7,30.32,North,5,13.0,20.0,69,0.00,,,0.00,WUHU216DAVISVP2,2013-04-09 10:32:00,
2013-04-09 05:37:00,15.0,7.0,30.32,NNE,25,6.0,20.0,70,0.00,,,0.00,WUHU216DAVISVP2,2013-04-09 10:37:00,
2013-04-09 05:42:00,14.9,6.9,30.32,NNE,26,10.0,16.0,70,0.00,,,0.00,WUHU216DAVISVP2,2013-04-09 10:42:00,
2013-04-09 05:47:00,14.9,6.9,30.32,North,355,9.0,19.0,70,0.00,,,0.00,WUHU216DAVISVP2,2013-04-09 10:47:00,
2013-04-09 05:52:00,14.8,6.8,30.32,NNE,19,14.0,25.0,70,0.00,,,0.00,WUHU216DAVISVP2,2013-04-09 10:52:00,
2013-04-09 05:57:00,14.6,6.0,30.32,NNE,19,9.0,25.0,68,0.00,,,0.00,WUHU216DAVISVP2,2013-04-09 10:57:00,
2013-04-09 06:03:00,14.6,6.3,30.32,NNE,31,9.0,18.0,69,0.00,,,0.00,WUHU216DAVISVP2,2013-04-09 11:03:00,
2013-04-09 06:08:00,14.7,6.7,30.32,North,349,9.0,18.0,70,0.00,,,0.00,WUHU216DAVISVP2,2013-04-09 11:08:00,
2013-04-09 06:13:00,14.7,6.7,30.32,North,5,13.0,18.0,70,0.00,,,0.00,WUHU216DAVISVP2,2013-04-09 11:13:00,
2013-04-09 06:18:00,14.7,6.4,30.32,North,355,7.0,18.0,69,0.00,,,0.00,WUHU216DAVISVP2,2013-04-09 11:18:00,
2013-04-09 06:23:00,14.6,6.0,30.32,NNE,19,12.0,20.0,68,0.00,,,0.00,WUHU216DAVISVP2,2013-04-09 11:23:00,
2013-04-09 06:28:00,14.7,6.1,30.32,NNE,13,9.0,20.0,68,0.00,,,0.00,WUHU216DAVISVP2,2013-04-09 11:28:00,
2013-04-09 06:33:00,14.7,6.4,30.32,NNE,13,5.0,19.0,69,0.00,,,0.00,WUHU216DAVISVP2,2013-04-09 11:33:00,
2013-04-09 06:38:00,14.6,6.3,30.33,North,360,8.0,19.0,69,0.00,,,0.00,WUHU216DAVISVP2,2013-04-09 11:38:00,
2013-04-09 06:43:00,14.6,6.3,30.33,North,5,6.0,20.0,69,0.00,,,0.00,WUHU216DAVISVP2,2013-04-09 11:43:00,
2013-04-09 06:48:00,14.6,6.3,30.33,North,355,12.0,20.0,69,0.00,,,0.00,WUHU216DAVISVP2,2013-04-09 11:48:00,
2013-04-09 06:53:00,14.6,6.3,30.34,NE,36,6.0,17.0,69,0.00,,,0.00,WUHU216DAVISVP2,2013-04-09 11:53:00,
2013-04-09 06:58:00,14.6,6.3,30.34,North,5,3.0,16.0,69,0.00,,,0.00,WUHU216DAVISVP2,2013-04-09 11:58:00,
2013-04-09 07:03:00,14.6,6.0,30.34,NNE,15,5.0,19.0,68,0.00,,,0.00,WUHU216DAVISVP2,2013-04-09 12:03:00,
2013-04-09 07:08:00,14.7,5.8,30.34,NNE,17,10.0,20.0,67,0.00,,,0.00,WUHU216DAVISVP2,2013-04-09 12:08:00,
2013-04-09 07:13:00,14.8,5.5,30.34,NNE,19,15.0,20.0,66,0.00,,,0.00,WUHU216DAVISVP2,2013-04-09 12:13:00,
2013-04-09 07:18:00,14.8,5.9,30.34,NNE,22,6.0,19.0,67,0.00,,,0.00,WUHU216DAVISVP2,2013-04-09 12:18:00,
2013-04-09 07:23:00,14.7,6.7,30.34,NNE,25,10.0,18.0,70,0.00,,,0.00,WUHU216DAVISVP2,2013-04-09 12:23:00,
2013-04-09 07:28:00,14.6,6.6,30.34,NNE,13,10.0,18.0,70,0.00,,,0.00,WUHU216DAVISVP2,2013-04-09 12:28:00,
2013-04-09 07:33:00,14.5,6.5,30.34,NNE,21,12.0,21.0,70,0.00,,,0.00,WUHU216DAVISVP2,2013-04-09 12:33:00,
2013-04-09 07:38:00,14.5,6.2,30.34,North,360,4.0,21.0,69,0.00,,,0.00,WUHU216DAVISVP2,2013-04-09 12:38:00,
2013-04-09 07:43:00,14.8,6.5,30.35,North,355,9.0,20.0,69,0.00,,,0.00,WUHU216DAVISVP2,2013-04-09 12:43:00,
2013-04-09 07:48:00,14.8,6.5,30.35,North,355,1.0,16.0,69,0.00,,,0.00,WUHU216DAVISVP2,2013-04-09 12:48:00,
2013-04-09 07:53:00,14.7,6.4,30.35,NNE,21,6.0,16.0,69,0.00,,,0.00,WUHU216DAVISVP2,2013-04-09 12:53:00,
2013-04-09 07:58:00,14.7,6.4,30.36,North,360,9.0,14.0,69,0.00,,,0.00,WUHU216DAVISVP2,2013-04-09 12:58:00,
2013-04-09 08:03:00,14.8,6.8,30.36,North,5,3.0,13.0,70,0.00,,,0.00,WUHU216DAVISVP2,2013-04-09 13:03:00,
2013-04-09 08:08:00,14.8,6.8,30.37,NNW,348,3.0,11.0,70,0.00,,,0.00,WUHU216DAVISVP2,2013-04-09 13:08:00,
2013-04-09 08:13:00,14.9,7.2,30.37,North,360,0.0,11.0,71,0.00,,,0.00,WUHU216DAVISVP2,2013-04-09 13:13:00,
2013-04-09 08:18:00,15.0,7.3,30.38,NNE,24,0.0,11.0,71,0.00,,,0.00,WUHU216DAVISVP2,2013-04-09 13:18:00,
2013-04-09 08:23:00,15.2,7.2,30.39,North,11,11.0,20.0,70,0.00,,,0.00,WUHU216DAVISVP2,2013-04-09 13:23:00,
2013-04-09 08:28:00,15.2,7.2,30.39,NNE,28,0.0,20.0,70,0.00,,,0.00,WUHU216DAVISVP2,2013-04-09 13:28:00,
2013-04-09 08:33:00,15.1,7.1,30.39,East,88,0.0,16.0,70,0.00,,,0.00,WUHU216DAVISVP2,2013-04-09 13:33:00,
2013-04-09 08:38:00,15.2,7.2,30.39,NE,36,0.0,18.0,70,0.00,,,0.00,WUHU216DAVISVP2,2013-04-09 13:38:00,
2013-04-09 08:43:00,15.2,7.2,30.39,NNE,15,11.0,18.0,70,0.00,,,0.00,WUHU216DAVISVP2,2013-04-09 13:43:00,
2013-04-09 08:48:00,14.8,6.5,30.39,North,360,12.0,19.0,69,0.00,,,0.00,WUHU216DAVISVP2,2013-04-09 13:48:00,
2013-04-09 08:53:00,14.7,6.4,30.39,North,9,7.0,20.0,69,0.00,,,0.00,WUHU216DAVISVP2,2013-04-09 13:53:00,
2013-04-09 08:58:00,14.6,6.3,30.38,NNE,22,2.0,20.0,69,0.00,,,0.00,WUHU216DAVISVP2,2013-04-09 13:58:00,
2013-04-09 09:03:00,14.6,6.6,30.38,NNE,13,13.0,23.0,70,0.00,,,0.00,WUHU216DAVISVP2,2013-04-09 14:03:00,
2013-04-09 09:08:00,14.6,6.3,30.38,North,360,8.0,23.0,69,0.00,,,0.00,WUHU216DAVISVP2,2013-04-09 14:08:00,
2013-04-09 09:13:00,14.5,6.2,30.38,NNE,19,3.0,17.0,69,0.00,,,0.00,WUHU216DAVISVP2,2013-04-09 14:13:00,
2013-04-09 09:18:00,14.6,6.6,30.39,NNW,346,10.0,17.0,70,0.00,,,0.00,WUHU216DAVISVP2,2013-04-09 14:18:00,
2013-04-09 09:23:00,14.8,6.8,30.38,North,350,11.0,17.0,70,0.00,,,0.00,WUHU216DAVISVP2,2013-04-09 14:23:00,
2013-04-09 09:28:00,14.7,6.7,30.39,NNE,15,15.0,18.0,70,0.00,,,0.00,WUHU216DAVISVP2,2013-04-09 14:28:00,
2013-04-09 09:33:00,14.7,6.7,30.39,NNE,26,7.0,18.0,70,0.00,,,0.00,WUHU216DAVISVP2,2013-04-09 14:33:00,
2013-04-09 09:38:00,14.9,6.9,30.39,North,355,9.0,17.0,70,0.00,,,0.00,WUHU216DAVISVP2,2013-04-09 14:38:00,
2013-04-09 09:43:00,14.8,6.8,30.39,NNE,26,7.0,17.0,70,0.00,,,0.00,WUHU216DAVISVP2,2013-04-09 14:43:00,
2013-04-09 09:49:00,14.5,6.5,30.39,NNE,22,7.0,18.0,70,0.00,,,0.00,WUHU216DAVISVP2,2013-04-09 14:49:00,
2013-04-09 09:54:00,14.5,6.9,30.40,NNE,13,10.0,18.0,71,0.00,,,0.00,WUHU216DAVISVP2,2013-04-09 14:54:00,
2013-04-09 09:59:00,14.8,7.1,30.39,North,360,3.0,18.0,71,0.00,,,0.00,WUHU216DAVISVP2,2013-04-09 14:59:00,
2013-04-09 10:04:00,14.9,7.2,30.39,North,355,4.0,19.0,71,0.00,,,0.00,WUHU216DAVISVP2,2013-04-09 15:04:00,
2013-04-09 10:09:00,15.0,7.6,30.39,NNE,24,12.0,19.0,72,0.00,,,0.00,WUHU216DAVISVP2,2013-04-09 15:09:00,
2013-04-09 10:14:00,15.2,7.8,30.39,North,360,7.0,19.0,72,0.00,,,0.00,WUHU216DAVISVP2,2013-04-09 15:14:00,
2013-04-09 10:19:00,15.3,7.9,30.39,North,355,9.0,19.0,72,0.00,,,0.00,WUHU216DAVISVP2,2013-04-09 15:19:00,
2013-04-09 10:24:00,15.6,8.2,30.40,NNE,29,2.0,15.0,72,0.00,,,0.00,WUHU216DAVISVP2,2013-04-09 15:24:00,
2013-04-09 10:29:00,15.9,8.5,30.40,NNE,19,3.0,16.0,72,0.00,,,0.00,WUHU216DAVISVP2,2013-04-09 15:29:00,
2013-04-09 10:34:00,16.3,8.6,30.40,NNE,17,16.0,16.0,71,0.00,,,0.00,WUHU216DAVISVP2,2013-04-09 15:34:00,
2013-04-09 10:39:00,15.9,8.5,30.40,NNE,28,11.0,22.0,72,0.00,,,0.00,WUHU216DAVISVP2,2013-04-09 15:39:00,
2013-04-09 10:44:00,16.2,8.8,30.40,North,360,5.0,22.0,72,0.00,,,0.00,WUHU216DAVISVP2,2013-04-09 15:44:00,
2013-04-09 10:49:00,16.3,8.6,30.41,NNE,19,9.0,14.0,71,0.00,,,0.00,WUHU216DAVISVP2,2013-04-09 15:49:00,
2013-04-09 10:54:00,16.6,8.9,30.41,North,5,13.0,17.0,71,0.00,,,0.00,WUHU216DAVISVP2,2013-04-09 15:54:00,
2013-04-09 10:59:00,16.8,9.1,30.42,NNE,17,13.0,17.0,71,0.00,,,0.00,WUHU216DAVISVP2,2013-04-09 15:59:00,
2013-04-09 11:04:00,16.6,8.6,30.42,NNE,15,7.0,16.0,70,0.00,,,0.00,WUHU216DAVISVP2,2013-04-09 16:04:00,
2013-04-09 11:09:00,16.8,9.1,30.42,NNE,19,7.0,19.0,71,0.00,,,0.00,WUHU216DAVISVP2,2013-04-09 16:09:00,
2013-04-09 11:14:00,17.1,9.4,30.42,NNE,26,9.0,19.0,71,0.00,,,0.00,WUHU216DAVISVP2,2013-04-09 16:14:00,
2013-04-09 11:20:00,17.1,9.4,30.42,NNE,32,9.0,17.0,71,0.00,,,0.00,WUHU216DAVISVP2,2013-04-09 16:20:00,
2013-04-09 11:25:00,17.7,10.2,30.42,NNW,345,4.0,14.0,72,0.00,,,0.00,WUHU216DAVISVP2,2013-04-09 16:25:00,
2013-04-09 11:30:00,18.0,9.9,30.42,North,360,3.0,14.0,70,0.00,,,0.00,WUHU216DAVISVP2,2013-04-09 16:30:00,
2013-04-09 11:35:00,17.5,9.7,30.42,NNE,12,6.0,17.0,71,0.00,,,0.00,WUHU216DAVISVP2,2013-04-09 16:35:00,
2013-04-09 11:40:00,18.1,10.6,30.42,NNE,19,5.0,17.0,72,0.00,,,0.00,WUHU216DAVISVP2,2013-04-09 16:40:00,
2013-04-09 11:45:00,18.5,10.7,30.42,NNE,14,13.0,15.0,71,0.00,,,0.00,WUHU216DAVISVP2,2013-04-09 16:45:00,
2013-04-09 11:50:00,18.2,10.4,30.41,North,9,1.0,18.0,71,0.00,,,0.00,WUHU216DAVISVP2,2013-04-09 16:50:00,
2013-04-09 11:55:00,18.8,11.3,30.42,North,360,10.0,20.0,72,0.00,,,0.00,WUHU216DAVISVP2,2013-04-09 16:55:00,
2013-04-09 12:00:00,18.9,11.1,30.41,NNE,24,5.0,20.0,71,0.00,,,0.00,WUHU216DAVISVP2,2013-04-09 17:00:00,
2013-04-09 12:05:00,18.9,11.4,30.41,NNE,19,14.0,19.0,72,0.00,,,0.00,WUHU216DAVISVP2,2013-04-09 17:05:00,
2013-04-09 12:10:00,18.5,10.7,30.41,NNE,20,1.0,22.0,71,0.00,,,0.00,WUHU216DAVISVP2,2013-04-09 17:10:00,
2013-04-09 12:15:00,19.1,11.6,30.41,NNE,15,11.0,22.0,72,0.00,,,0.00,WUHU216DAVISVP2,2013-04-09 17:15:00,
2013-04-09 12:20:00,19.0,11.2,30.41,North,5,5.0,17.0,71,0.00,,,0.00,WUHU216DAVISVP2,2013-04-09 17:20:00,
2013-04-09 12:25:00,19.7,12.2,30.40,North,360,1.0,17.0,72,0.00,,,0.00,WUHU216DAVISVP2,2013-04-09 17:25:00,
2013-04-09 12:30:00,19.7,11.5,30.40,NNE,19,4.0,17.0,70,0.00,,,0.00,WUHU216DAVISVP2,2013-04-09 17:30:00,
2013-04-09 12:35:00,19.7,11.9,30.40,NNW,347,4.0,17.0,71,0.00,,,0.00,WUHU216DAVISVP2,2013-04-09 17:35:00,
2013-04-09 12:40:00,19.7,12.2,30.40,NNE,13,3.0,15.0,72,0.00,,,0.00,WUHU216DAVISVP2,2013-04-09 17:40:00,
2013-04-09 12:45:00,20.1,12.6,30.40,NE,40,3.0,13.0,72,0.00,,,0.00,WUHU216DAVISVP2,2013-04-09 17:45:00,
2013-04-09 12:50:00,20.0,12.5,30.40,NNE,29,10.0,15.0,72,0.00,,,0.00,WUHU216DAVISVP2,2013-04-09 17:50:00,
2013-04-09 12:55:00,19.9,12.1,30.40,NNE,30,10.0,15.0,71,0.00,,,0.00,WUHU216DAVISVP2,2013-04-09 17:55:00,
2013-04-09 13:00:00,20.5,13.3,30.40,NW,306,0.0,15.0,73,0.00,,,0.00,WUHU216DAVISVP2,2013-04-09 18:00:00,
2013-04-09 13:05:00,20.9,13.0,30.41,NNE,30,0.0,14.0,71,0.00,,,0.00,WUHU216DAVISVP2,2013-04-09 18:05:00,
2013-04-09 13:10:00,21.5,13.9,30.41,NNE,17,0.0,14.0,72,0.00,,,0.00,WUHU216DAVISVP2,2013-04-09 18:10:00,
2013-04-09 13:15:00,21.0,13.4,30.41,NNE,13,7.0,15.0,72,0.00,,,0.00,WUHU216DAVISVP2,2013-04-09 18:15:00,
2013-04-09 13:20:00,21.1,13.5,30.40,NNE,14,1.0,15.0,72,0.00,,,0.00,WUHU216DAVISVP2,2013-04-09 18:20:00,
2013-04-09 13:25:00,21.6,14.3,30.40,NNE,33,0.0,15.0,73,0.00,,,0.00,WUHU216DAVISVP2,2013-04-09 18:25:00,
2013-04-09 13:30:00,21.6,13.7,30.41,NNE,19,0.0,17.0,71,0.00,,,0.00,WUHU216DAVISVP2,2013-04-09 18:30:00,
2013-04-09 13:35:00,22.1,14.5,30.41,NNE,21,1.0,17.0,72,0.00,,,0.00,WUHU216DAVISVP2,2013-04-09 18:35:00,
2013-04-09 13:40:00,22.7,15.4,30.41,NNE,21,3.0,14.0,73,0.00,,,0.00,WUHU216DAVISVP2,2013-04-09 18:40:00,
2013-04-09 13:45:00,22.4,14.8,30.41,NNE,23,4.0,12.0,72,0.00,,,0.00,WUHU216DAVISVP2,2013-04-09 18:45:00,
2013-04-09 13:50:00,22.9,15.6,30.40,NNE,19,3.0,17.0,73,0.00,,,0.00,WUHU216DAVISVP2,2013-04-09 18:50:00,
2013-04-09 13:55:00,23.0,15.4,30.40,North,351,7.0,17.0,72,0.00,,,0.00,WUHU216DAVISVP2,2013-04-09 18:55:00,
2013-04-09 14:00:00,23.3,15.3,30.39,North,360,13.0,16.0,71,0.00,,,0.00,WUHU216DAVISVP2,2013-04-09 19:00:00,
2013-04-09 14:05:00,23.3,15.7,30.39,NNE,14,2.0,19.0,72,0.00,,,0.00,WUHU216DAVISVP2,2013-04-09 19:05:00,
2013-04-09 14:10:00,23.3,15.3,30.39,NE,34,4.0,19.0,71,0.00,,,0.00,WUHU216DAVISVP2,2013-04-09 19:10:00,
2013-04-09 14:15:00,23.6,15.9,30.38,North,11,10.0,20.0,72,0.00,,,0.00,WUHU216DAVISVP2,2013-04-09 19:15:00,
2013-04-09 14:20:00,23.9,16.2,30.37,NNE,22,15.0,20.0,72,0.00,,,0.00,WUHU216DAVISVP2,2013-04-09 19:20:00,
2013-04-09 14:25:00,24.3,16.6,30.37,NNE,19,11.0,21.0,72,0.00,,,0.00,WUHU216DAVISVP2,2013-04-09 19:25:00,
2013-04-09 14:31:00,24.7,17.0,30.37,North,360,9.0,21.0,72,0.00,,,0.00,WUHU216DAVISVP2,2013-04-09 19:31:00,
2013-04-09 14:36:00,24.9,16.9,30.37,NNE,26,5.0,20.0,71,0.00,,,0.00,WUHU216DAVISVP2,2013-04-09 19:36:00,
2013-04-09 14:41:00,25.2,16.8,30.36,NNE,18,2.0,20.0,70,0.00,,,0.00,WUHU216DAVISVP2,2013-04-09 19:41:00,
2013-04-09 14:46:00,25.0,16.6,30.36,North,5,10.0,21.0,70,0.00,,,0.00,WUHU216DAVISVP2,2013-04-09 19:46:00,
2013-04-09 14:51:00,25.5,17.1,30.34,North,350,14.0,26.0,70,0.00,,,0.00,WUHU216DAVISVP2,2013-04-09 19:51:00,
2013-04-09 14:56:00,26.0,17.6,30.34,NNE,21,4.0,26.0,70,0.00,,,0.00,WUHU216DAVISVP2,2013-04-09 19:56:00,
2013-04-09 15:01:00,25.9,16.8,30.35,North,355,11.0,23.0,68,0.00,,,0.00,WUHU216DAVISVP2,2013-04-09 20:01:00,
2013-04-09 15:06:00,26.7,17.6,30.35,NNW,339,3.0,23.0,68,0.00,,,0.00,WUHU216DAVISVP2,2013-04-09 20:06:00,
2013-04-09 15:11:00,25.9,16.8,30.36,North,10,13.0,23.0,68,0.00,,,0.00,WUHU216DAVISVP2,2013-04-09 20:11:00,
2013-04-09 15:16:00,26.4,17.0,30.37,NE,34,5.0,23.0,67,0.00,,,0.00,WUHU216DAVISVP2,2013-04-09 20:16:00,
2013-04-09 15:21:00,26.0,16.3,30.37,North,9,9.0,24.0,66,0.00,,,0.00,WUHU216DAVISVP2,2013-04-09 20:21:00,
2013-04-09 15:26:00,26.2,17.1,30.38,NNE,33,3.0,24.0,68,0.00,,,0.00,WUHU216DAVISVP2,2013-04-09 20:26:00,
2013-04-09 15:31:00,26.2,16.8,30.39,NNE,21,6.0,20.0,67,0.00,,,0.00,WUHU216DAVISVP2,2013-04-09 20:31:00,
2013-04-09 15:36:00,26.2,17.1,30.38,North,11,9.0,19.0,68,0.00,,,0.00,WUHU216DAVISVP2,2013-04-09 20:36:00,
2013-04-09 15:41:00,26.3,16.9,30.39,North,5,11.0,20.0,67,0.00,,,0.00,WUHU216DAVISVP2,2013-04-09 20:41:00,
2013-04-09 15:46:00,26.6,17.2,30.39,North,9,5.0,20.0,67,0.00,,,0.00,WUHU216DAVISVP2,2013-04-09 20:46:00,
2013-04-09 15:51:00,26.7,17.6,30.39,NNE,18,13.0,16.0,68,0.00,,,0.00,WUHU216DAVISVP2,2013-04-09 20:51:00,
2013-04-09 15:57:00,26.7,17.3,30.39,North,360,2.0,21.0,67,0.00,,,0.00,WUHU216DAVISVP2,2013-04-09 20:57:00,
2013-04-09 16:02:00,26.7,16.9,30.38,NE,40,16.0,21.0,66,0.00,,,0.00,WUHU216DAVISVP2,2013-04-09 21:02:00,
2013-04-09 16:07:00,27.0,17.6,30.38,North,9,17.0,19.0,67,0.00,,,0.00,WUHU216DAVISVP2,2013-04-09 21:07:00,
2013-04-09 16:12:00,26.8,17.0,30.38,North,9,6.0,20.0,66,0.00,,,0.00,WUHU216DAVISVP2,2013-04-09 21:12:00,
2013-04-09 16:17:00,27.0,17.6,30.38,North,5,4.0,20.0,67,0.00,,,0.00,WUHU216DAVISVP2,2013-04-09 21:17:00,
2013-04-09 16:22:00,26.9,17.1,30.36,North,360,14.0,21.0,66,0.00,,,0.00,WUHU216DAVISVP2,2013-04-09 21:22:00,
2013-04-09 16:27:00,26.8,17.0,30.35,North,5,5.0,24.0,66,0.00,,,0.00,WUHU216DAVISVP2,2013-04-09 21:27:00,
2013-04-09 16:32:00,26.8,17.0,30.34,North,355,11.0,24.0,66,0.00,,,0.00,WUHU216DAVISVP2,2013-04-09 21:32:00,
2013-04-09 16:37:00,26.9,17.5,30.33,North,10,10.0,21.0,67,0.00,,,0.00,WUHU216DAVISVP2,2013-04-09 21:37:00,
2013-04-09 16:42:00,27.2,17.4,30.33,NNE,14,11.0,27.0,66,0.00,,,0.00,WUHU216DAVISVP2,2013-04-09 21:42:00,
2013-04-09 16:47:00,27.4,17.6,30.33,North,5,6.0,27.0,66,0.00,,,0.00,WUHU216DAVISVP2,2013-04-09 21:47:00,
2013-04-09 16:52:00,27.4,17.2,30.34,North,9,2.0,21.0,65,0.00,,,0.00,WUHU216DAVISVP2,2013-04-09 21:52:00,
2013-04-09 16:57:00,27.4,17.2,30.34,NNW,346,13.0,21.0,65,0.00,,,0.00,WUHU216DAVISVP2,2013-04-09 21:57:00,
2013-04-09 17:02:00,27.7,17.5,30.34,WNW,286,2.0,21.0,65,0.00,,,0.00,WUHU216DAVISVP2,2013-04-09 22:02:00,
2013-04-09 17:07:00,27.5,17.0,30.34,NNE,32,13.0,22.0,64,0.00,,,0.00,WUHU216DAVISVP2,2013-04-09 22:07:00,
2013-04-09 17:12:00,27.6,17.1,30.34,NNE,30,7.0,22.0,64,0.00,,,0.00,WUHU216DAVISVP2,2013-04-09 22:12:00,
2013-04-09 17:17:00,27.5,16.6,30.35,NNE,18,16.0,20.0,63,0.00,,,0.00,WUHU216DAVISVP2,2013-04-09 22:17:00,
2013-04-09 17:22:00,27.6,16.7,30.36,North,11,7.0,21.0,63,0.00,,,0.00,WUHU216DAVISVP2,2013-04-09 22:22:00,
2013-04-09 17:27:00,27.3,16.8,30.36,NE,42,3.0,21.0,64,0.00,,,0.00,WUHU216DAVISVP2,2013-04-09 22:27:00,
2013-04-09 17:32:00,27.4,16.9,30.36,North,5,5.0,19.0,64,0.00,,,0.00,WUHU216DAVISVP2,2013-04-09 22:32:00,
2013-04-09 17:37:00,27.6,17.4,30.36,North,5,5.0,18.0,65,0.00,,,0.00,WUHU216DAVISVP2,2013-04-09 22:37:00,
2013-04-09 17:42:00,27.4,17.2,30.36,North,5,2.0,12.0,65,0.00,,,0.00,WUHU216DAVISVP2,2013-04-09 22:42:00,
2013-04-09 17:47:00,27.0,16.9,30.37,North,360,2.0,17.0,65,0.00,,,0.00,WUHU216DAVISVP2,2013-04-09 22:47:00,
2013-04-09 17:52:00,26.8,17.0,30.38,North,9,10.0,17.0,66,0.00,,,0.00,WUHU216DAVISVP2,2013-04-09 22:52:00,
2013-04-09 17:57:00,26.9,17.1,30.38,NNW,343,10.0,18.0,66,0.00,,,0.00,WUHU216DAVISVP2,2013-04-09 22:57:00,
2013-04-09 18:02:00,26.7,16.9,30.38,NNE,13,10.0,18.0,66,0.00,,,0.00,WUHU216DAVISVP2,2013-04-09 23:02:00,
2013-04-09 18:07:00,26.6,16.8,30.38,NNE,19,3.0,19.0,66,0.00,,,0.00,WUHU216DAVISVP2,2013-04-09 23:07:00,
2013-04-09 18:12:00,26.7,16.9,30.37,North,5,6.0,19.0,66,0.00,,,0.00,WUHU216DAVISVP2,2013-04-09 23:12:00,
2013-04-09 18:17:00,26.6,16.8,30.37,NNE,24,0.0,20.0,66,0.00,,,0.00,WUHU216DAVISVP2,2013-04-09 23:17:00,
2013-04-09 18:22:00,26.6,16.5,30.36,North,355,11.0,20.0,65,0.00,,,0.00,WUHU216DAVISVP2,2013-04-09 23:22:00,
2013-04-09 18:27:00,26.5,16.7,30.36,NNE,15,3.0,16.0,66,0.00,,,0.00,WUHU216DAVISVP2,2013-04-09 23:27:00,
2013-04-09 18:32:00,26.5,16.4,30.36,North,11,10.0,17.0,65,0.00,,,0.00,WUHU216DAVISVP2,2013-04-09 23:32:00,
2013-04-09 18:37:00,26.5,16.4,30.36,NNE,30,1.0,17.0,65,0.00,,,0.00,WUHU216DAVISVP2,2013-04-09 23:37:00,
2013-04-09 18:42:00,26.3,15.8,30.35,NNE,24,16.0,24.0,64,0.00,,,0.00,WUHU216DAVISVP2,2013-04-09 23:42:00,
2013-04-09 18:47:00,26.3,16.5,30.34,NNW,332,1.0,24.0,66,0.00,,,0.00,WUHU216DAVISVP2,2013-04-09 23:47:00,
2013-04-09 18:52:00,26.3,16.9,30.34,NNE,16,13.0,16.0,67,0.00,,,0.00,WUHU216DAVISVP2,2013-04-09 23:52:00,
2013-04-09 18:57:00,26.2,16.8,30.35,North,360,11.0,16.0,67,0.00,,,0.00,WUHU216DAVISVP2,2013-04-09 23:57:00,
2013-04-09 19:03:00,26.0,16.6,30.35,North,10,2.0,16.0,67,0.00,,,0.00,WUHU216DAVISVP2,2013-04-10 00:03:00,
2013-04-09 19:08:00,26.2,16.8,30.34,NNW,346,2.0,16.0,67,0.00,,,0.00,WUHU216DAVISVP2,2013-04-10 00:08:00,
2013-04-09 19:13:00,26.1,17.0,30.34,NNW,344,3.0,12.0,68,0.00,,,0.00,WUHU216DAVISVP2,2013-04-10 00:13:00,
2013-04-09 19:18:00,26.1,17.0,30.34,NNE,30,5.0,15.0,68,0.00,,,0.00,WUHU216DAVISVP2,2013-04-10 00:18:00,
2013-04-09 19:23:00,26.1,17.4,30.33,NNW,346,6.0,16.0,69,0.00,,,0.00,WUHU216DAVISVP2,2013-04-10 00:23:00,
2013-04-09 19:28:00,26.0,16.9,30.32,NNE,18,11.0,16.0,68,0.00,,,0.00,WUHU216DAVISVP2,2013-04-10 00:28:00,
2013-04-09 19:33:00,25.8,16.8,30.32,NNE,13,7.0,17.0,68,0.00,,,0.00,WUHU216DAVISVP2,2013-04-10 00:33:00,
2013-04-09 19:38:00,25.8,16.8,30.32,NNE,24,3.0,20.0,68,0.00,,,0.00,WUHU216DAVISVP2,2013-04-10 00:38:00,
2013-04-09 19:43:00,25.7,16.7,30.32,NNE,25,3.0,20.0,68,0.00,,,0.00,WUHU216DAVISVP2,2013-04-10 00:43:00,
2013-04-09 19:48:00,25.6,16.6,30.32,NNE,28,5.0,18.0,68,0.00,,,0.00,WUHU216DAVISVP2,2013-04-10 00:48:00,
2013-04-09 19:53:00,25.5,16.5,30.32,North,5,14.0,17.0,68,0.00,,,0.00,WUHU216DAVISVP2,2013-04-10 00:53:00,
2013-04-09 19:58:00,25.4,16.0,30.33,NNE,21,6.0,20.0,67,0.00,,,0.00,WUHU216DAVISVP2,2013-04-10 00:58:00,
2013-04-09 20:03:00,25.3,15.9,30.33,NNE,17,4.0,20.0,67,0.00,,,0.00,WUHU216DAVISVP2,2013-04-10 01:03:00,
2013-04-09 20:08:00,25.2,15.8,30.33,NNE,24,2.0,19.0,67,0.00,,,0.00,WUHU216DAVISVP2,2013-04-10 01:08:00,
2013-04-09 20:13:00,25.2,16.2,30.33,North,360,3.0,17.0,68,0.00,,,0.00,WUHU216DAVISVP2,2013-04-10 01:13:00,
2013-04-09 20:18:00,25.1,16.1,30.32,NNE,13,5.0,16.0,68,0.00,,,0.00,WUHU216DAVISVP2,2013-04-10 01:18:00,
2013-04-09 20:23:00,24.9,16.2,30.32,North,5,7.0,20.0,69,0.00,,,0.00,WUHU216DAVISVP2,2013-04-10 01:23:00,
2013-04-09 20:28:00,24.9,16.6,30.32,NNW,338,10.0,20.0,70,0.00,,,0.00,WUHU216DAVISVP2,2013-04-10 01:28:00,
2013-04-09 20:33:00,24.8,16.5,30.32,North,360,6.0,18.0,70,0.00,,,0.00,WUHU216DAVISVP2,2013-04-10 01:33:00,
2013-04-09 20:38:00,24.8,16.5,30.33,NNE,19,2.0,16.0,70,0.00,,,0.00,WUHU216DAVISVP2,2013-04-10 01:38:00,
2013-04-09 20:43:00,24.8,16.8,30.33,NNE,14,6.0,14.0,71,0.00,,,0.00,WUHU216DAVISVP2,2013-04-10 01:43:00,
2013-04-09 20:48:00,24.8,16.8,30.34,North,9,2.0,16.0,71,0.00,,,0.00,WUHU216DAVISVP2,2013-04-10 01:48:00,
2013-04-09 20:53:00,24.8,16.8,30.35,North,5,2.0,19.0,71,0.00,,,0.00,WUHU216DAVISVP2,2013-04-10 01:53:00,
2013-04-09 20:58:00,24.8,16.8,30.34,NE,34,2.0,19.0,71,0.00,,,0.00,WUHU216DAVISVP2,2013-04-10 01:58:00,
2013-04-09 21:03:00,24.8,17.1,30.34,NNE,24,2.0,16.0,72,0.00,,,0.00,WUHU216DAVISVP2,2013-04-10 02:03:00,
2013-04-09 21:08:00,24.8,17.1,30.34,NNE,13,1.0,14.0,72,0.00,,,0.00,WUHU216DAVISVP2,2013-04-10 02:08:00,
2013-04-09 21:13:00,24.8,17.1,30.35,NNE,26,2.0,14.0,72,0.00,,,0.00,WUHU216DAVISVP2,2013-04-10 02:13:00,
2013-04-09 21:18:00,24.8,17.1,30.36,North,5,1.0,12.0,72,0.00,,,0.00,WUHU216DAVISVP2,2013-04-10 02:18:00,
2013-04-09 21:23:00,24.8,17.1,30.36,NNE,20,1.0,12.0,72,0.00,,,0.00,WUHU216DAVISVP2,2013-04-10 02:23:00,
2013-04-09 21:28:00,24.8,17.1,30.36,NNE,18,2.0,10.0,72,0.00,,,0.00,WUHU216DAVISVP2,2013-04-10 02:28:00,
2013-04-09 21:33:00,24.9,16.9,30.37,North,9,1.0,10.0,71,0.00,,,0.00,WUHU216DAVISVP2,2013-04-10 02:33:00,
2013-04-09 21:38:00,24.9,16.9,30.37,North,5,2.0,9.0,71,0.00,,,0.00,WUHU216DAVISVP2,2013-04-10 02:38:00,
2013-04-09 21:43:00,24.9,16.6,30.37,North,355,0.0,9.0,70,0.00,,,0.00,WUHU216DAVISVP2,2013-04-10 02:43:00,
2013-04-09 21:48:00,24.9,16.6,30.37,NNW,338,0.0,10.0,70,0.00,,,0.00,WUHU216DAVISVP2,2013-04-10 02:48:00,
2013-04-09 21:53:00,24.9,16.6,30.37,NNE,17,0.0,12.0,70,0.00,,,0.00,WUHU216DAVISVP2,2013-04-10 02:53:00,
2013-04-09 21:58:00,24.9,16.9,30.37,NNE,13,2.0,12.0,71,0.00,,,0.00,WUHU216DAVISVP2,2013-04-10 02:58:00,
2013-04-09 22:03:00,24.8,16.8,30.37,North,360,0.0,7.0,71,0.00,,,0.00,WUHU216DAVISVP2,2013-04-10 03:03:00,
2013-04-09 22:08:00,24.8,17.1,30.37,NNE,25,2.0,7.0,72,0.00,,,0.00,WUHU216DAVISVP2,2013-04-10 03:08:00,
2013-04-09 22:13:00,24.8,16.8,30.36,NNE,16,3.0,11.0,71,0.00,,,0.00,WUHU216DAVISVP2,2013-04-10 03:13:00,
2013-04-09 22:18:00,24.8,17.1,30.36,North,355,0.0,11.0,72,0.00,,,0.00,WUHU216DAVISVP2,2013-04-10 03:18:00,
2013-04-09 22:23:00,24.8,17.1,30.36,North,11,4.0,10.0,72,0.00,,,0.00,WUHU216DAVISVP2,2013-04-10 03:23:00,
2013-04-09 22:28:00,24.7,17.0,30.36,North,9,2.0,6.0,72,0.00,,,0.00,WUHU216DAVISVP2,2013-04-10 03:28:00,
2013-04-09 22:33:00,24.7,17.0,30.36,North,5,0.0,6.0,72,0.00,,,0.00,WUHU216DAVISVP2,2013-04-10 03:33:00,
2013-04-09 22:38:00,24.6,16.9,30.37,NNE,25,2.0,14.0,72,0.00,,,0.00,WUHU216DAVISVP2,2013-04-10 03:38:00,
2013-04-09 22:43:00,24.7,17.0,30.37,NNE,25,0.0,14.0,72,0.00,,,0.00,WUHU216DAVISVP2,2013-04-10 03:43:00,
2013-04-09 22:48:00,24.7,17.0,30.37,North,5,2.0,7.0,72,0.00,,,0.00,WUHU216DAVISVP2,2013-04-10 03:48:00,
2013-04-09 22:53:00,24.8,17.4,30.37,North,11,0.0,10.0,73,0.00,,,0.00,WUHU216DAVISVP2,2013-04-10 03:53:00,
2013-04-09 22:58:00,24.8,17.4,30.37,NNE,20,2.0,10.0,73,0.00,,,0.00,WUHU216DAVISVP2,2013-04-10 03:58:00,
2013-04-09 23:00:00,24.8,17.4,30.37,North,5,1.0,9.0,73,0.00,,,0.00,WUHU216DAVISVP2,2013-04-10 04:00:00,
2013-04-09 23:05:00,24.8,17.4,30.37,North,5,0.0,13.0,73,0.00,,,0.00,WUHU216DAVISVP2,2013-04-10 04:05:00,
2013-04-09 23:10:00,24.8,17.4,30.37,North,355,1.0,13.0,73,0.00,,,0.00,WUHU216DAVISVP2,2013-04-10 04:10:00,
2013-04-09 23:15:00,24.7,17.3,30.37,North,5,0.0,14.0,73,0.00,,,0.00,WUHU216DAVISVP2,2013-04-10 04:15:00,
2013-04-09 23:20:00,24.7,17.3,30.37,North,11,1.0,14.0,73,0.00,,,0.00,WUHU216DAVISVP2,2013-04-10 04:20:00,
2013-04-09 23:25:00,24.6,17.2,30.36,North,5,2.0,13.0,73,0.00,,,0.00,WUHU216DAVISVP2,2013-04-10 04:25:00,
2013-04-09 23:30:00,24.5,17.1,30.36,North,10,2.0,13.0,73,0.00,,,0.00,WUHU216DAVISVP2,2013-04-10 04:30:00,
2013-04-09 23:36:00,24.5,17.1,30.36,North,360,4.0,11.0,73,0.00,,,0.00,WUHU216DAVISVP2,2013-04-10 04:36:00,
2013-04-09 23:41:00,24.5,17.1,30.36,North,5,2.0,12.0,73,0.00,,,0.00,WUHU216DAVISVP2,2013-04-10 04:41:00,
2013-04-09 23:46:00,24.5,17.4,30.36,NNE,26,3.0,12.0,74,0.00,,,0.00,WUHU216DAVISVP2,2013-04-10 04:46:00,
2013-04-09 23:51:00,24.5,17.4,30.36,NNE,21,2.0,7.0,74,0.00,,,0.00,WUHU216DAVISVP2,2013-04-10 04:51:00,
2013-04-09 23:56:00,24.7,17.3,30.36,NNE,18,2.0,11.0,73,0.00,,,0.00,WUHU216DAVISVP2,2013-04-10 04:56:00,